Time;durP1;ratioP1;P1;durP2;ratioP2;P2;SDS_P1;SDS_P2;PMS_P1;PMS_P2;Temp;Humidity;BMP_temperature;BMP_pressure;BME280_temperature;BME280_humidity;BME280_pressure;Samples;Min_cycle;Max_cycle;Signal;HPM_P1;HPM_P2
2022/10/02 00:01:32;;;;;;;1.50;1.40;;;;;;;9.52;100.00;96138.16;108314;1268;23324;-83
2022/10/02 00:04:04;;;;;;;1.70;1.40;;;;;;;9.49;100.00;96142.55;108377;1268;22567;-83
2022/10/02 00:06:44;;;;;;;1.40;1.10;;;;;;;9.48;100.00;96147.58;108345;1268;22660;-83
2022/10/02 00:09:25;;;;;;;2.40;1.70;;;;;;;9.49;100.00;96148.42;108346;1268;27043;-83
2022/10/02 00:11:59;;;;;;;2.40;1.50;;;;;;;9.49;100.00;96155.83;108375;1268;22733;-83
2022/10/02 00:14:35;;;;;;;2.40;1.40;;;;;;;9.47;100.00;96150.29;108412;1268;23363;-83
2022/10/02 00:17:09;;;;;;;1.20;1.10;;;;;;;9.48;100.00;96147.91;108353;1268;24363;-83
2022/10/02 00:19:40;;;;;;;1.70;1.40;;;;;;;9.48;100.00;96148.63;108295;1268;35811;-82
2022/10/02 00:22:35;;;;;;;2.40;1.30;;;;;;;9.48;100.00;96148.38;108393;1268;22777;-83
2022/10/02 00:25:16;;;;;;;1.80;1.40;;;;;;;9.49;100.00;96148.36;108386;1268;22669;-83
2022/10/02 00:28:10;;;;;;;1.80;1.00;;;;;;;9.48;100.00;96149.59;108388;1268;24336;-83
2022/10/02 00:30:55;;;;;;;2.80;1.60;;;;;;;9.46;100.00;96149.25;108351;1267;29540;-82
2022/10/02 00:33:35;;;;;;;2.90;1.50;;;;;;;9.46;100.00;96155.07;108387;1268;22522;-83
2022/10/02 00:36:26;;;;;;;11.30;1.40;;;;;;;9.48;100.00;96153.35;108401;1268;24078;-83
2022/10/02 00:39:07;;;;;;;1.40;1.20;;;;;;;9.49;100.00;96152.75;108344;1268;25547;-83
2022/10/02 00:42:17;;;;;;;1.60;1.30;;;;;;;9.50;100.00;96158.40;108403;1268;24690;-83
2022/10/02 00:45:01;;;;;;;5.20;1.70;;;;;;;9.49;100.00;96156.73;108390;1268;22529;-83
2022/10/02 00:47:46;;;;;;;2.90;1.50;;;;;;;9.48;100.00;96158.91;108388;1268;22529;-83
2022/10/02 00:50:33;;;;;;;2.40;1.60;;;;;;;9.49;100.00;96163.92;108262;1268;29616;-82
2022/10/02 00:53:26;;;;;;;1.50;1.40;;;;;;;9.51;100.00;96165.80;108235;1270;25298;-83
2022/10/02 00:56:12;;;;;;;2.10;1.20;;;;;;;9.53;100.00;96163.88;108351;1268;24656;-83
2022/10/02 00:59:09;;;;;;;1.40;1.20;;;;;;;9.56;100.00;96167.13;108300;1268;23612;-83
2022/10/02 01:01:48;;;;;;;1.80;1.20;;;;;;;9.57;100.00;96171.35;108282;1268;22823;-83
2022/10/02 01:04:25;;;;;;;1.90;1.20;;;;;;;9.57;100.00;96172.09;108382;1268;22601;-83
2022/10/02 01:06:59;;;;;;;1.60;1.40;;;;;;;9.57;100.00;96172.20;108347;1268;23893;-83
2022/10/02 01:09:31;;;;;;;2.80;1.40;;;;;;;9.59;100.00;96176.42;108367;1268;33332;-82
2022/10/02 01:12:04;;;;;;;2.20;1.70;;;;;;;9.61;100.00;96176.66;108338;1268;23841;-83
2022/10/02 01:14:36;;;;;;;1.10;1.00;;;;;;;9.61;100.00;96177.14;108412;1268;22526;-83
2022/10/02 01:17:21;;;;;;;1.10;1.00;;;;;;;9.61;100.00;96173.81;108394;1268;23285;-82
2022/10/02 01:19:53;;;;;;;2.30;1.20;;;;;;;9.63;100.00;96174.37;108338;1268;23854;-82
2022/10/02 01:22:32;;;;;;;1.30;1.10;;;;;;;9.63;100.00;96176.11;108420;1268;25429;-83
2022/10/02 01:25:06;;;;;;;1.50;1.20;;;;;;;9.61;100.00;96177.61;108432;1268;22524;-82
2022/10/02 01:27:38;;;;;;;2.50;1.30;;;;;;;9.60;100.00;96175.19;108425;1268;24227;-82
2022/10/02 01:30:12;;;;;;;2.00;1.40;;;;;;;9.61;100.00;96176.50;108342;1268;23960;-82
2022/10/02 01:32:50;;;;;;;1.70;1.30;;;;;;;9.62;100.00;96177.34;108332;1268;22556;-82
2022/10/02 01:35:25;;;;;;;2.60;1.40;;;;;;;9.64;100.00;96188.69;108406;1268;22541;-83
2022/10/02 01:37:56;;;;;;;1.90;1.30;;;;;;;9.67;100.00;96190.44;108379;1268;22545;-82
2022/10/02 01:40:30;;;;;;;1.60;1.10;;;;;;;9.69;100.00;96196.83;108352;1268;26674;-82
2022/10/02 01:43:05;;;;;;;2.00;1.30;;;;;;;9.70;100.00;96192.05;108357;1268;22529;-82
2022/10/02 01:45:49;;;;;;;2.40;1.20;;;;;;;9.72;100.00;96197.50;108366;1268;23921;-82
2022/10/02 01:48:32;;;;;;;1.90;1.20;;;;;;;9.75;100.00;96203.87;108406;1268;22544;-82
2022/10/02 01:51:19;;;;;;;1.40;1.30;;;;;;;9.75;100.00;96204.07;108405;1268;22650;-82
2022/10/02 01:53:54;;;;;;;1.60;1.20;;;;;;;9.75;100.00;96207.77;108390;1268;24208;-82
2022/10/02 01:56:38;;;;;;;1.60;1.20;;;;;;;9.76;100.00;96216.98;108418;1268;22526;-82
2022/10/02 01:59:20;;;;;;;1.80;1.30;;;;;;;9.76;100.00;96222.86;108315;1268;36702;-82
2022/10/02 02:02:01;;;;;;;2.00;1.10;;;;;;;9.76;100.00;96224.51;108333;1268;22618;-82
2022/10/02 02:04:41;;;;;;;2.00;1.20;;;;;;;9.76;100.00;96224.82;108322;1268;25360;-82
2022/10/02 02:07:19;;;;;;;1.50;1.20;;;;;;;9.76;100.00;96228.04;108248;1270;22656;-82
2022/10/02 02:09:58;;;;;;;1.90;1.20;;;;;;;9.77;100.00;96232.63;108269;1268;27647;-82
2022/10/02 02:12:39;;;;;;;3.60;1.40;;;;;;;9.77;100.00;96232.38;108338;1268;23710;-82
2022/10/02 02:15:15;;;;;;;3.10;1.30;;;;;;;9.76;100.00;96234.83;108182;1270;22553;-82
2022/10/02 02:17:54;;;;;;;2.10;1.30;;;;;;;9.74;100.00;96234.52;108351;1268;24241;-82
2022/10/02 02:20:32;;;;;;;2.10;1.10;;;;;;;9.72;100.00;96245.72;108286;1268;28687;-82
2022/10/02 02:23:08;;;;;;;1.80;1.20;;;;;;;9.70;100.00;96240.64;108321;1268;25293;-82
2022/10/02 02:25:44;;;;;;;2.50;1.20;;;;;;;9.69;100.00;96245.84;108356;1268;22628;-82
2022/10/02 02:28:18;;;;;;;2.10;1.20;;;;;;;9.67;100.00;96250.73;108354;1268;22544;-82
2022/10/02 02:30:53;;;;;;;2.30;1.30;;;;;;;9.65;100.00;96254.21;108330;1268;22533;-82
2022/10/02 02:33:33;;;;;;;1.60;1.30;;;;;;;9.63;100.00;96260.27;108349;1268;22541;-82
2022/10/02 02:36:11;;;;;;;3.60;1.30;;;;;;;9.60;100.00;96252.94;108361;1268;22561;-82
2022/10/02 02:38:46;;;;;;;2.60;1.30;;;;;;;9.59;100.00;96254.76;108288;1268;30636;-82
2022/10/02 02:41:24;;;;;;;2.50;1.20;;;;;;;9.61;100.00;96254.26;108343;1268;22529;-82
2022/10/02 02:44:02;;;;;;;1.10;0.90;;;;;;;9.61;100.00;96250.55;108317;1268;24276;-82
2022/10/02 02:47:02;;;;;;;2.80;1.40;;;;;;;9.62;100.00;96255.20;108330;1268;22690;-82
2022/10/02 02:49:32;;;;;;;1.30;1.20;;;;;;;9.61;100.00;96258.70;108298;1268;33199;-82
2022/10/02 02:52:08;;;;;;;2.20;1.30;;;;;;;9.60;100.00;96257.70;108393;1268;23720;-82
2022/10/02 02:54:47;;;;;;;2.40;1.40;;;;;;;9.63;100.00;96259.73;108385;1268;22536;-83
2022/10/02 02:57:25;;;;;;;1.20;1.10;;;;;;;9.64;100.00;96263.38;108368;1267;22580;-82
2022/10/02 03:00:02;;;;;;;1.60;1.20;;;;;;;9.67;100.00;96262.39;108293;1268;31505;-82
2022/10/02 03:02:34;;;;;;;1.30;1.20;;;;;;;9.70;100.00;96261.51;108401;1268;22542;-82
2022/10/02 03:05:11;;;;;;;1.80;1.40;;;;;;;9.74;100.00;96262.96;108382;1268;22552;-82
2022/10/02 03:07:49;;;;;;;2.20;1.50;;;;;;;9.74;100.00;96262.48;108405;1267;24351;-82
2022/10/02 03:10:27;;;;;;;2.20;1.30;;;;;;;9.72;100.00;96270.87;108273;1268;23124;-82
2022/10/02 03:13:10;;;;;;;1.70;1.10;;;;;;;9.72;100.00;96274.05;108302;1268;22543;-83
2022/10/02 03:15:55;;;;;;;2.10;1.30;;;;;;;9.76;100.00;96269.29;108314;1268;22633;-82
2022/10/02 03:18:43;;;;;;;2.10;1.30;;;;;;;9.80;100.00;96271.73;108314;1268;25869;-82
2022/10/02 03:21:18;;;;;;;2.40;1.60;;;;;;;9.83;100.00;96276.19;108342;1268;24230;-82
2022/10/02 03:24:01;;;;;;;2.50;1.20;;;;;;;9.86;100.00;96266.11;108368;1268;22545;-82
2022/10/02 03:26:39;;;;;;;2.30;1.40;;;;;;;9.91;100.00;96275.60;108293;1268;22564;-82
2022/10/02 03:29:17;;;;;;;1.50;1.20;;;;;;;9.93;100.00;96282.02;108244;1268;40528;-82
2022/10/02 03:31:50;;;;;;;2.00;1.50;;;;;;;9.95;100.00;96280.20;108275;1270;22527;-82
2022/10/02 03:34:22;;;;;;;2.70;1.40;;;;;;;9.96;100.00;96282.36;108259;1270;22565;-82
2022/10/02 03:36:53;;;;;;;1.30;1.20;;;;;;;10.00;100.00;96287.41;108195;1270;22564;-82
2022/10/02 03:39:24;;;;;;;1.60;1.30;;;;;;;10.01;100.00;96286.24;108306;1268;25215;-82
2022/10/02 03:41:56;;;;;;;1.60;1.30;;;;;;;10.03;100.00;96292.20;108153;1270;23771;-83
2022/10/02 03:44:27;;;;;;;2.00;1.60;;;;;;;10.04;100.00;96289.02;108351;1268;22536;-82
2022/10/02 03:46:59;;;;;;;2.20;1.30;;;;;;;10.05;100.00;96302.77;108330;1268;23391;-82
2022/10/02 03:49:30;;;;;;;1.90;1.50;;;;;;;10.04;100.00;96286.67;108265;1268;34443;-81
2022/10/02 03:52:02;;;;;;;2.10;1.80;;;;;;;10.06;100.00;96301.80;108426;1268;22535;-82
2022/10/02 03:54:36;;;;;;;2.10;1.30;;;;;;;10.04;100.00;96299.77;108377;1268;22528;-82
2022/10/02 03:57:11;;;;;;;2.10;1.70;;;;;;;10.00;100.00;96305.64;108339;1268;22559;-82
2022/10/02 03:59:48;;;;;;;1.70;1.30;;;;;;;9.97;100.00;96302.26;108309;1268;28244;-82
2022/10/02 04:02:27;;;;;;;1.60;1.10;;;;;;;9.98;100.00;96306.48;108407;1268;24326;-82
2022/10/02 04:05:05;;;;;;;1.30;1.10;;;;;;;9.99;100.00;96309.60;108360;1268;22930;-82
2022/10/02 04:07:42;;;;;;;2.30;1.30;;;;;;;10.02;100.00;96312.60;108398;1268;22530;-82
2022/10/02 04:10:27;;;;;;;2.70;1.60;;;;;;;10.02;100.00;96315.46;108251;1268;29820;-82
2022/10/02 04:13:07;;;;;;;2.50;1.40;;;;;;;10.03;100.00;96323.28;108371;1268;22618;-82
2022/10/02 04:15:51;;;;;;;1.40;1.10;;;;;;;10.02;100.00;96325.63;108336;1268;22549;-82
2022/10/02 04:18:25;;;;;;;2.30;1.10;;;;;;;9.99;100.00;96327.23;108321;1268;22533;-82
2022/10/02 04:21:01;;;;;;;4.50;1.60;;;;;;;10.01;100.00;96324.38;108335;1268;22568;-82
2022/10/02 04:23:37;;;;;;;2.60;1.20;;;;;;;10.05;99.98;96335.82;108350;1268;24016;-82
2022/10/02 04:26:14;;;;;;;3.40;1.40;;;;;;;10.05;99.98;96333.55;108346;1268;22601;-82
2022/10/02 04:28:51;;;;;;;2.60;1.40;;;;;;;10.04;99.95;96341.75;108249;1268;25308;-82
2022/10/02 04:31:23;;;;;;;2.70;1.30;;;;;;;10.04;100.00;96346.95;108350;1268;22563;-82
2022/10/02 04:33:55;;;;;;;2.10;1.50;;;;;;;10.04;100.00;96353.20;108343;1268;24344;-83
2022/10/02 04:36:40;;;;;;;2.90;1.30;;;;;;;10.03;100.00;96349.29;108168;1270;22533;-82
2022/10/02 04:39:29;;;;;;;2.60;1.40;;;;;;;10.03;100.00;96356.61;108285;1268;25100;-82
2022/10/02 04:42:21;;;;;;;1.60;1.40;;;;;;;10.05;99.88;96360.77;108275;1270;22680;-82
2022/10/02 04:45:09;;;;;;;1.40;0.90;;;;;;;10.09;99.65;96356.90;108356;1268;24028;-82
2022/10/02 04:47:57;;;;;;;2.30;1.40;;;;;;;10.14;98.84;96360.63;108324;1268;22561;-81
2022/10/02 04:50:51;;;;;;;2.20;1.20;;;;;;;10.15;98.91;96365.08;108316;1268;32721;-83
2022/10/02 04:53:45;;;;;;;2.50;1.60;;;;;;;10.15;98.43;96372.02;108356;1268;23895;-82
2022/10/02 04:56:37;;;;;;;2.30;1.30;;;;;;;10.16;98.43;96375.02;108384;1268;22723;-81
2022/10/02 04:59:27;;;;;;;4.00;1.80;;;;;;;10.15;98.38;96380.23;108295;1268;34658;-82
2022/10/02 05:02:09;;;;;;;3.70;1.40;;;;;;;10.14;98.39;96375.99;108330;1268;22554;-82
2022/10/02 05:04:54;;;;;;;2.60;1.10;;;;;;;10.12;98.21;96378.16;108359;1268;23839;-82
2022/10/02 05:07:42;;;;;;;2.10;1.50;;;;;;;10.12;98.14;96378.90;108332;1268;22535;-81
2022/10/02 05:10:36;;;;;;;5.30;1.70;;;;;;;10.15;97.87;96385.36;108300;1268;28599;-82
2022/10/02 05:13:22;;;;;;;3.10;1.40;;;;;;;10.16;97.31;96397.64;108338;1268;22663;-81
2022/10/02 05:16:08;;;;;;;1.80;0.90;;;;;;;10.19;97.00;96403.96;108348;1268;24397;-81
2022/10/02 05:19:10;;;;;;;6.70;2.40;;;;;;;10.22;96.51;96403.36;108309;1266;32582;-81
2022/10/02 05:21:57;;;;;;;4.20;1.90;;;;;;;10.23;97.17;96394.73;108256;1268;22619;-81
2022/10/02 05:24:45;;;;;;;6.90;3.50;;;;;;;10.22;96.81;96396.12;108379;1268;25364;-82
2022/10/02 05:27:45;;;;;;;8.90;6.90;;;;;;;10.24;96.42;96401.55;108378;1268;22563;-82
2022/10/02 05:30:18;;;;;;;5.00;2.40;;;;;;;10.29;96.02;96407.40;108289;1268;24094;-83
2022/10/02 05:33:14;;;;;;;7.10;4.50;;;;;;;10.31;95.29;96395.35;108334;1268;24208;-82
2022/10/02 05:36:09;;;;;;;6.40;4.20;;;;;;;10.32;95.32;96408.84;108363;1268;22532;-82
2022/10/02 05:39:05;;;;;;;3.30;1.50;;;;;;;10.32;95.32;96417.27;108304;1268;23570;-82
2022/10/02 05:41:57;;;;;;;5.50;2.30;;;;;;;10.32;94.89;96419.96;108354;1268;23708;-82
2022/10/02 05:44:36;;;;;;;4.40;1.00;;;;;;;10.34;94.43;96422.44;108328;1268;24256;-82
2022/10/02 05:47:16;;;;;;;2.90;1.20;;;;;;;10.36;94.40;96429.73;108345;1268;24319;-82
2022/10/02 05:49:52;;;;;;;2.20;1.20;;;;;;;10.38;94.53;96429.77;108239;1268;32278;-82
2022/10/02 05:52:29;;;;;;;3.60;1.00;;;;;;;10.40;94.02;96434.93;108341;1268;23294;-82
2022/10/02 05:55:11;;;;;;;1.40;0.80;;;;;;;10.44;93.79;96436.66;108377;1268;23026;-82
2022/10/02 05:57:48;;;;;;;1.60;1.20;;;;;;;10.46;92.99;96430.38;108359;1268;22555;-82
2022/10/02 06:00:32;;;;;;;4.20;1.50;;;;;;;10.52;93.00;96441.00;108312;1268;22620;-82
2022/10/02 06:03:13;;;;;;;3.50;0.80;;;;;;;10.55;92.67;96446.65;108335;1268;22634;-82
2022/10/02 06:05:54;;;;;;;4.20;2.00;;;;;;;10.58;92.56;96446.04;108333;1268;22541;-81
2022/10/02 06:08:32;;;;;;;5.10;2.30;;;;;;;10.61;92.56;96442.94;108248;1268;31517;-80
2022/10/02 06:11:11;;;;;;;2.50;1.00;;;;;;;10.62;92.29;96446.84;108362;1268;22567;-82
2022/10/02 06:13:49;;;;;;;3.00;1.50;;;;;;;10.62;92.07;96454.63;108357;1268;22625;-82
2022/10/02 06:16:29;;;;;;;5.90;4.00;;;;;;;10.62;91.60;96451.08;108363;1268;22588;-82
2022/10/02 06:19:11;;;;;;;4.20;1.50;;;;;;;10.63;91.54;96454.10;108275;1268;32382;-82
2022/10/02 06:21:48;;;;;;;3.70;1.10;;;;;;;10.64;91.64;96458.00;108344;1268;22542;-82
2022/10/02 06:24:25;;;;;;;2.90;1.50;;;;;;;10.64;92.13;96465.95;108333;1268;22545;-82
2022/10/02 06:27:03;;;;;;;2.10;1.20;;;;;;;10.66;91.93;96462.58;108351;1268;23840;-82
2022/10/02 06:29:42;;;;;;;5.30;1.90;;;;;;;10.66;92.08;96475.84;108314;1268;24030;-83
2022/10/02 06:32:26;;;;;;;2.20;1.20;;;;;;;10.67;92.48;96476.26;108372;1268;24273;-83
2022/10/02 06:34:58;;;;;;;4.20;1.80;;;;;;;10.69;92.30;96480.90;108247;1270;22540;-82
2022/10/02 06:37:47;;;;;;;4.10;0.90;;;;;;;10.68;92.09;96476.09;108362;1268;22569;-83
2022/10/02 06:40:45;;;;;;;2.60;0.70;;;;;;;10.60;91.93;96475.72;108284;1268;23644;-83
2022/10/02 06:43:34;;;;;;;2.80;1.00;;;;;;;10.49;91.54;96469.83;108356;1268;22526;-82
2022/10/02 06:46:16;;;;;;;1.80;0.80;;;;;;;10.45;91.48;96486.52;108314;1268;25117;-83
2022/10/02 06:48:57;;;;;;;5.00;1.50;;;;;;;10.44;91.85;96502.12;108260;1268;27413;-82
2022/10/02 06:51:44;;;;;;;4.00;1.30;;;;;;;10.46;91.40;96497.27;108359;1268;22561;-83
2022/10/02 06:54:29;;;;;;;3.60;1.10;;;;;;;10.59;91.10;96504.66;108333;1268;22531;-83
2022/10/02 06:57:14;;;;;;;4.80;1.70;;;;;;;10.79;90.32;96499.27;108337;1268;25486;-82
2022/10/02 07:00:02;;;;;;;6.20;1.40;;;;;;;11.13;89.51;96504.23;108242;1268;30872;-82
2022/10/02 07:02:56;;;;;;;3.30;1.50;;;;;;;11.12;87.63;96509.81;108168;1270;23902;-82
2022/10/02 07:05:49;;;;;;;3.70;1.20;;;;;;;11.06;87.87;96512.00;108337;1268;22543;-82
2022/10/02 07:08:36;;;;;;;5.50;1.60;;;;;;;11.09;88.50;96516.20;108370;1268;24651;-82
2022/10/02 07:11:16;;;;;;;2.50;0.90;;;;;;;11.11;88.21;96517.91;108350;1268;22983;-82
2022/10/02 07:14:12;;;;;;;3.50;1.20;;;;;;;10.98;87.84;96530.08;108342;1267;22559;-82
2022/10/02 07:17:08;;;;;;;1.70;1.10;;;;;;;10.91;87.65;96520.13;108383;1268;22538;-83
2022/10/02 07:19:57;;;;;;;3.50;1.40;;;;;;;10.93;87.05;96533.42;108132;1270;31641;-82
2022/10/02 07:22:49;;;;;;;1.90;1.00;;;;;;;10.91;87.59;96531.65;108197;1268;230202;-82
2022/10/02 07:25:42;;;;;;;4.80;1.40;;;;;;;10.92;88.14;96530.61;108397;1268;22558;-83
2022/10/02 07:28:20;;;;;;;3.80;1.70;;;;;;;10.91;87.87;96536.69;108344;1268;22567;-82
2022/10/02 07:31:02;;;;;;;4.60;1.70;;;;;;;10.93;88.27;96527.91;108400;1267;22530;-82
2022/10/02 07:33:46;;;;;;;6.30;1.90;;;;;;;10.96;88.42;96536.98;108390;1267;22492;-82
2022/10/02 07:36:30;;;;;;;3.80;1.00;;;;;;;10.90;88.20;96538.88;108400;1267;23117;-82
2022/10/02 07:39:06;;;;;;;;;;;;;;;10.86;88.86;96540.52;108353;1268;24833;-82
2022/10/02 07:41:59;;;;;;;3.30;1.30;;;;;;;10.94;88.55;96536.11;108389;1268;22534;-82
2022/10/02 07:44:47;;;;;;;3.30;1.20;;;;;;;11.04;88.40;96545.78;108357;1268;25303;-82
2022/10/02 07:47:42;;;;;;;4.30;0.90;;;;;;;11.43;87.35;96542.52;108407;1268;22571;-82
2022/10/02 07:50:18;;;;;;;4.00;1.90;;;;;;;11.50;85.48;96538.11;108289;1267;28166;-81
2022/10/02 07:52:58;;;;;;;3.70;0.70;;;;;;;11.58;85.78;96540.78;108383;1267;22522;-81
2022/10/02 07:55:32;;;;;;;2.60;1.10;;;;;;;11.56;84.70;96532.64;108352;1268;22513;-82
2022/10/02 07:58:11;;;;;;;5.40;1.40;;;;;;;11.55;84.28;96538.00;108395;1267;22552;-82
2022/10/02 08:00:47;;;;;;;5.20;1.90;;;;;;;11.53;82.83;96532.34;108333;1268;31839;-82
2022/10/02 08:03:28;;;;;;;4.10;1.30;;;;;;;11.45;83.06;96541.67;108372;1268;22673;-83
2022/10/02 08:05:58;;;;;;;;;;;;;;;11.37;83.40;96532.02;108410;1268;24031;-81
2022/10/02 08:08:37;;;;;;;5.90;1.20;;;;;;;11.33;83.70;96536.42;108342;1268;33091;-81
2022/10/02 08:11:14;;;;;;;10.70;1.80;;;;;;;11.44;84.03;96539.16;108329;1267;22556;-82
2022/10/02 08:13:51;;;;;;;4.20;1.30;;;;;;;11.44;83.11;96537.04;108379;1268;22559;-82
2022/10/02 08:16:27;;;;;;;3.50;1.10;;;;;;;11.34;82.24;96541.02;108357;1268;25373;-82
2022/10/02 08:19:03;;;;;;;4.20;1.10;;;;;;;11.26;82.29;96538.41;108325;1267;29325;-82
2022/10/02 08:21:41;;;;;;;2.60;1.10;;;;;;;11.22;81.87;96519.61;108329;1268;25308;-82
2022/10/02 08:24:18;;;;;;;2.60;0.90;;;;;;;11.23;82.25;96534.58;108348;1268;22552;-82
2022/10/02 08:26:54;;;;;;;3.40;1.60;;;;;;;11.27;82.18;96534.58;108247;1270;22537;-82
2022/10/02 08:29:34;;;;;;;2.30;1.10;;;;;;;11.41;82.28;96537.00;108272;1268;26127;-81
2022/10/02 08:32:12;;;;;;;2.20;0.80;;;;;;;12.16;82.08;96535.55;108371;1268;22576;-83
2022/10/02 08:34:44;;;;;;;4.10;1.50;;;;;;;12.23;79.01;96532.11;108365;1268;22552;-82
2022/10/02 08:37:33;;;;;;;4.70;1.30;;;;;;;12.17;78.80;96530.86;108346;1268;23826;-82
2022/10/02 08:40:49;;;;;;;5.80;1.40;;;;;;;12.01;78.68;96532.62;108351;1267;23650;-82
2022/10/02 08:43:59;;;;;;;3.20;1.30;;;;;;;11.74;78.76;96527.29;108059;1273;22571;-82
2022/10/02 08:47:07;;;;;;;3.70;1.60;;;;;;;11.87;80.46;96531.90;108352;1268;23913;-81
2022/10/02 08:50:24;;;;;;;3.90;1.20;;;;;;;12.28;79.76;96521.65;108198;1268;34929;-82
2022/10/02 08:53:28;;;;;;;3.00;1.20;;;;;;;12.30;78.17;96520.52;107885;1273;22546;-82
2022/10/02 08:56:22;;;;;;;3.40;1.30;;;;;;;12.00;77.93;96517.79;108060;1273;22577;-82
2022/10/02 08:59:18;;;;;;;4.10;1.10;;;;;;;11.89;78.71;96520.55;108265;1268;41849;-82
2022/10/02 09:02:26;;;;;;;5.00;1.20;;;;;;;11.81;78.63;96520.62;108368;1268;22550;-82
2022/10/02 09:05:38;;;;;;;2.60;0.90;;;;;;;11.71;78.51;96511.14;108309;1268;22546;-82
2022/10/02 09:08:43;;;;;;;3.70;0.90;;;;;;;11.73;78.94;96515.35;108409;1268;22556;-82
2022/10/02 09:11:52;;;;;;;3.10;1.30;;;;;;;11.80;77.89;96504.90;108162;1268;22625;-81
2022/10/02 09:14:51;;;;;;;4.40;1.60;;;;;;;11.91;78.41;96504.59;108384;1268;22601;-81
2022/10/02 09:17:59;;;;;;;4.90;1.30;;;;;;;12.18;79.13;96498.43;108361;1267;22679;-81
2022/10/02 09:20:48;;;;;;;2.80;1.00;;;;;;;12.38;78.91;96494.91;108327;1268;29803;-81
2022/10/02 09:23:54;;;;;;;3.60;1.30;;;;;;;12.43;77.61;96489.40;108340;1268;24268;-81
2022/10/02 09:26:47;;;;;;;5.50;1.20;;;;;;;12.45;77.45;96488.20;108404;1268;23680;-82
2022/10/02 09:32:57;;;;;;;4.60;1.30;;;;;;;12.63;75.82;96483.68;104395;1311;545037;-83
2022/10/02 09:35:54;;;;;;;3.20;1.00;;;;;;;12.37;75.35;96486.04;107092;1282;25268;-82
2022/10/02 09:39:00;;;;;;;3.00;1.20;;;;;;;12.17;75.53;96485.59;107384;1281;28298;-80
2022/10/02 09:42:20;;;;;;;3.90;1.30;;;;;;;12.08;76.39;96494.43;107303;1282;23657;-82
2022/10/02 09:45:27;;;;;;;3.90;1.40;;;;;;;12.10;76.82;96494.03;106376;1290;178530;-81
2022/10/02 09:48:32;;;;;;;5.80;1.20;;;;;;;12.13;77.20;96494.21;107471;1282;25410;-82
2022/10/02 09:51:40;;;;;;;4.60;1.30;;;;;;;12.26;77.20;96492.23;107603;1281;24397;-82
2022/10/02 09:54:42;;;;;;;4.60;1.30;;;;;;;12.60;78.36;96488.14;107617;1281;25852;-82
2022/10/02 09:57:53;;;;;;;5.60;1.70;;;;;;;12.79;76.93;96488.78;107469;1279;24287;-81
2022/10/02 10:00:38;;;;;;;3.90;1.20;;;;;;;12.86;76.80;96490.17;107583;1281;22552;-81
2022/10/02 10:03:45;;;;;;;5.20;1.60;;;;;;;12.79;76.66;96495.77;107623;1281;22541;-81
2022/10/02 10:06:51;;;;;;;4.40;1.40;;;;;;;12.66;75.49;96490.01;107602;1281;23768;-81
2022/10/02 10:10:17;;;;;;;2.60;1.00;;;;;;;12.60;75.03;96490.87;107540;1281;33033;-81
2022/10/02 10:13:31;;;;;;;3.10;1.30;;;;;;;12.72;75.93;96490.75;107631;1281;24246;-82
2022/10/02 10:16:47;;;;;;;4.30;1.20;;;;;;;12.74;76.00;96489.59;107504;1281;22547;-81
2022/10/02 10:19:50;;;;;;;3.60;1.10;;;;;;;12.73;75.78;96484.66;107553;1278;34970;-82
2022/10/02 10:23:07;;;;;;;5.00;1.80;;;;;;;12.63;74.91;96485.70;107620;1281;22549;-81
2022/10/02 10:26:22;;;;;;;3.40;1.50;;;;;;;12.55;75.66;96482.84;107605;1281;22565;-82
2022/10/02 10:29:32;;;;;;;3.90;1.90;;;;;;;12.44;74.57;96485.88;107567;1281;28395;-82
2022/10/02 10:32:25;;;;;;;5.30;2.20;;;;;;;12.38;74.96;96485.88;107521;1281;22563;-82
2022/10/02 10:35:20;;;;;;;4.00;1.40;;;;;;;12.39;75.68;96476.92;107140;1281;22560;-81
2022/10/02 10:41:23;;;;;;;2.80;1.30;;;;;;;12.52;75.22;96473.19;107606;1280;22560;-81
2022/10/02 10:44:21;;;;;;;4.40;1.60;;;;;;;12.62;75.31;96473.73;107590;1281;22547;-81
2022/10/02 10:47:19;;;;;;;4.10;1.30;;;;;;;12.78;75.89;96474.41;108167;1271;22764;-81
2022/10/02 10:50:12;;;;;;;3.90;1.10;;;;;;;12.94;75.22;96473.85;108097;1271;29375;-81
2022/10/02 10:53:04;;;;;;;3.50;1.40;;;;;;;13.24;75.04;96464.52;108086;1271;24175;-81
2022/10/02 10:55:58;;;;;;;3.60;1.40;;;;;;;13.34;73.75;96464.10;108181;1271;22615;-81
2022/10/02 10:58:45;;;;;;;2.30;1.20;;;;;;;13.19;72.53;96462.17;108169;1271;31401;-80
2022/10/02 11:01:21;;;;;;;5.40;1.30;;;;;;;13.02;72.83;96472.19;108196;1269;22624;-81
2022/10/02 11:04:14;;;;;;;3.60;1.30;;;;;;;12.95;73.17;96472.85;108204;1269;23322;-81
2022/10/02 11:07:06;;;;;;;2.80;1.70;;;;;;;13.09;73.83;96467.52;108170;1269;22575;-81
2022/10/02 11:10:14;;;;;;;2.50;1.40;;;;;;;13.45;75.25;96467.64;108126;1269;33928;-81
2022/10/02 11:13:04;;;;;;;3.10;1.20;;;;;;;13.58;71.38;96462.52;108128;1271;22576;-81
2022/10/02 11:15:58;;;;;;;2.50;1.00;;;;;;;13.39;70.92;96461.45;108232;1269;22611;-81
2022/10/02 11:18:57;;;;;;;5.80;1.50;;;;;;;13.27;70.59;96467.25;108101;1269;28364;-81
2022/10/02 11:22:07;;;;;;;3.20;1.50;;;;;;;13.16;70.12;96463.07;108167;1269;22655;-81
2022/10/02 11:25:21;;;;;;;2.20;1.10;;;;;;;13.27;70.52;96465.59;108163;1271;22744;-81
2022/10/02 11:28:17;;;;;;;3.80;1.40;;;;;;;13.39;70.89;96460.72;108225;1269;24277;-81
2022/10/02 11:31:01;;;;;;;4.10;1.10;;;;;;;13.39;70.13;96455.59;108081;1271;27513;-82
2022/10/02 11:34:04;;;;;;;3.60;1.40;;;;;;;13.36;68.32;96447.40;108206;1269;22653;-81
2022/10/02 11:37:00;;;;;;;2.90;1.20;;;;;;;13.40;68.26;96445.04;108184;1269;22530;-81
2022/10/02 11:40:02;;;;;;;4.50;0.80;;;;;;;13.55;67.89;96443.66;108110;1269;33093;-82
2022/10/02 11:42:59;;;;;;;2.80;0.80;;;;;;;13.59;67.48;96445.85;108227;1269;22539;-81
2022/10/02 11:45:43;;;;;;;2.70;0.90;;;;;;;13.79;67.43;96445.41;108214;1271;22616;-81
2022/10/02 11:48:48;;;;;;;3.90;1.20;;;;;;;13.91;66.75;96447.94;108218;1269;22542;-81
2022/10/02 11:51:45;;;;;;;3.30;0.90;;;;;;;13.85;66.07;96443.98;108188;1269;22656;-81
2022/10/02 11:54:49;;;;;;;2.60;1.00;;;;;;;13.73;65.79;96443.42;108210;1269;22558;-81
2022/10/02 11:57:46;;;;;;;2.70;1.20;;;;;;;13.75;66.59;96443.16;108200;1270;22555;-81
2022/10/02 12:00:52;;;;;;;5.80;1.20;;;;;;;13.66;66.56;96438.46;108124;1271;25317;-81
2022/10/02 12:03:30;;;;;;;4.50;1.10;;;;;;;13.62;67.01;96436.53;108193;1269;23905;-82
2022/10/02 12:06:12;;;;;;;2.30;1.20;;;;;;;13.60;67.70;96441.01;108206;1269;22837;-81
2022/10/02 12:08:58;;;;;;;3.20;1.80;;;;;;;13.63;68.49;96443.27;108138;1269;27742;-81
2022/10/02 12:11:40;;;;;;;1.90;0.90;;;;;;;13.63;67.63;96435.55;108173;1271;22567;-82
2022/10/02 12:14:28;;;;;;;2.60;1.20;;;;;;;13.54;67.66;96439.77;108201;1269;22539;-82
2022/10/02 12:17:26;;;;;;;2.70;1.10;;;;;;;13.46;67.96;96439.04;108180;1269;24376;-82
2022/10/02 12:29:09;;;;;;;3.00;1.20;;;;;;;13.39;69.04;96430.67;108084;1269;41263;-82
2022/10/02 12:31:50;;;;;;;4.00;1.50;;;;;;;13.50;69.17;96429.98;108223;1269;22616;-82
2022/10/02 12:34:40;;;;;;;2.80;1.20;;;;;;;13.70;69.37;96430.55;108193;1271;25189;-82
2022/10/02 12:37:22;;;;;;;3.40;1.00;;;;;;;13.75;68.27;96424.63;108239;1269;24009;-82
2022/10/02 12:40:06;;;;;;;2.20;0.90;;;;;;;13.84;67.82;96423.98;108141;1269;35619;-81
2022/10/02 12:42:59;;;;;;;3.50;1.20;;;;;;;14.15;67.91;96413.13;108184;1268;22596;-82
2022/10/02 12:45:46;;;;;;;1.90;0.80;;;;;;;14.55;67.16;96409.55;108217;1269;22696;-82
2022/10/02 12:48:34;;;;;;;4.60;1.20;;;;;;;14.55;64.94;96398.80;108209;1270;24037;-82
2022/10/02 12:51:33;;;;;;;2.50;1.20;;;;;;;14.34;65.49;96401.46;108212;1269;25300;-82
2022/10/02 12:54:50;;;;;;;7.00;1.30;;;;;;;14.12;64.90;96398.77;108181;1269;22574;-82
2022/10/02 12:57:54;;;;;;;1.50;0.90;;;;;;;13.83;66.04;96398.64;108198;1269;22621;-82
2022/10/02 13:00:31;;;;;;;4.40;1.10;;;;;;;13.83;67.07;96397.95;108148;1269;40395;-81
2022/10/02 13:03:35;;;;;;;6.30;1.50;;;;;;;14.03;67.33;96397.45;108212;1269;24241;-81
2022/10/02 13:06:50;;;;;;;2.60;1.00;;;;;;;14.14;66.96;96397.51;108182;1269;22628;-82
2022/10/02 13:09:37;;;;;;;3.60;1.20;;;;;;;13.94;66.65;96393.19;108133;1269;24527;-82